Latest Weather Observations for Warburto Point

IDS60801

Issued at 4:31 pm CDT Monday 8 February 2016 (issued every 30 minutes, with the page automatically refreshed every 10 minutes)

About weather observations | Map of weather stations | Latest weather observations for SA | Other Formats
Station Details ID: 022053 Name: WARBURTO POINT Lat: -34.00 Lon: 137.53 Height: 1.0 m
Data from the previous 72 hours. | See also: Recent months for locations in South Australia
Date/Time
CDT
Temp
°C
App
Temp
°C
Dew
Point
Rel
Hum
%
Delta-T
°C
Wind Press
QNH
hPa
Press
MSL
hPa
Rain
since 9 am
mm
Dir
 
Spd
km/h
Gust
km/h
Spd
kts
Gust
kts
08/04:30pm - - - - - SSW 32 37 17 20 - - -
08/04:00pm - - - - - SSW 33 41 18 22 - - -
08/03:30pm - - - - - SSW 39 46 21 25 - - -
08/03:00pm - - - - - SSW 35 44 19 24 - - -
08/02:30pm - - - - - SSW 35 48 19 26 - - -
08/02:00pm - - - - - SSW 37 46 20 25 - - -
08/01:30pm - - - - - SSW 37 46 20 25 - - -
08/01:00pm - - - - - SSW 35 46 19 25 - - -
08/12:30pm - - - - - SW 33 41 18 22 - - -
08/12:00pm - - - - - SW 32 39 17 21 - - -
08/11:30am - - - - - SW 28 35 15 19 - - -
08/11:00am - - - - - SSW 22 30 12 16 - - -
08/10:30am - - - - - SSW 22 30 12 16 - - -
08/10:00am - - - - - S 24 30 13 16 - - -
08/09:30am - - - - - S 24 32 13 17 - - -
08/09:00am - - - - - S 24 30 13 16 - - -
08/08:30am - - - - - S 26 32 14 17 - - -
08/08:00am - - - - - S 24 28 13 15 - - -
08/07:30am - - - - - S 24 28 13 15 - - -
08/07:00am - - - - - S 22 28 12 15 - - -
08/06:30am - - - - - S 20 26 11 14 - - -
08/06:00am - - - - - S 22 26 12 14 - - -
08/05:30am - - - - - S 24 28 13 15 - - -
08/05:00am - - - - - S 24 32 13 17 - - -
08/04:30am - - - - - S 26 30 14 16 - - -
08/04:00am - - - - - S 26 32 14 17 - - -
08/03:30am - - - - - S 22 28 12 15 - - -
08/03:00am - - - - - S 20 28 11 15 - - -
08/02:30am - - - - - S 20 26 11 14 - - -
08/02:00am - - - - - SSE 20 28 11 15 - - -
08/01:30am - - - - - SSE 28 32 15 17 - - -
08/01:00am - - - - - SSE 28 33 15 18 - - -
08/12:30am - - - - - S 28 33 15 18 - - -
08/12:00am - - - - - S 26 35 14 19 - - -
 
Date/Time
CDT
Temp
°C
App
Temp
°C
Dew
Point
Rel
Hum
%
Delta-T
°C
Wind Press
QNH
hPa
Press
MSL
hPa
Rain
since 9 am
mm
Dir
 
Spd
km/h
Gust
km/h
Spd
kts
Gust
kts
07/11:30pm - - - - - S 28 33 15 18 - - -
07/11:00pm - - - - - SSE 30 35 16 19 - - -
07/10:30pm - - - - - SSE 32 37 17 20 - - -
07/10:00pm - - - - - SSE 32 43 17 23 - - -
07/09:30pm - - - - - SSE 32 41 17 22 - - -
07/09:00pm - - - - - S 26 33 14 18 - - -
07/08:30pm - - - - - SSW 32 37 17 20 - - -
07/08:00pm - - - - - SSW 30 37 16 20 - - -
07/07:30pm - - - - - SSW 32 39 17 21 - - -
07/07:00pm - - - - - SSW 32 39 17 21 - - -
07/06:30pm - - - - - SSW 33 43 18 23 - - -
07/06:00pm - - - - - SW 35 46 19 25 - - -
07/05:30pm - - - - - SSW 35 43 19 23 - - -
07/05:00pm - - - - - SSW 35 43 19 23 - - -
07/04:30pm - - - - - SW 35 46 19 25 - - -
07/04:00pm - - - - - SW 37 46 20 25 - - -
07/03:30pm - - - - - SW 35 48 19 26 - - -
07/03:00pm - - - - - SW 37 46 20 25 - - -
07/02:30pm - - - - - SW 35 43 19 23 - - -
07/02:00pm - - - - - SW 33 41 18 22 - - -
07/01:30pm - - - - - SW 32 41 17 22 - - -
07/01:00pm - - - - - SW 32 39 17 21 - - -
07/12:30pm - - - - - SW 30 39 16 21 - - -
07/12:00pm - - - - - SW 30 37 16 20 - - -
07/11:30am - - - - - SW 30 35 16 19 - - -
07/11:00am - - - - - SW 28 33 15 18 - - -
07/10:30am - - - - - SSW 26 32 14 17 - - -
07/10:00am - - - - - SSW 22 30 12 16 - - -
07/09:30am - - - - - SSW 20 28 11 15 - - -
07/09:00am - - - - - S 19 24 10 13 - - -
07/08:30am - - - - - S 17 20 9 11 - - -
07/08:00am - - - - - S 19 24 10 13 - - -
07/07:30am - - - - - S 24 30 13 16 - - -
07/07:00am - - - - - S 28 33 15 18 - - -
07/06:30am - - - - - S 24 30 13 16 - - -
07/06:00am - - - - - SSW 22 28 12 15 - - -
07/05:30am - - - - - S 13 17 7 9 - - -
07/05:00am - - - - - SSE 13 17 7 9 - - -
07/04:30am - - - - - SSE 13 17 7 9 - - -
07/04:00am - - - - - SSE 13 17 7 9 - - -
07/03:30am - - - - - SSE 15 17 8 9 - - -
07/03:00am - - - - - S 15 19 8 10 - - -
07/02:30am - - - - - S 15 17 8 9 - - -
07/02:00am - - - - - S 17 24 9 13 - - -
07/01:30am - - - - - S 19 26 10 14 - - -
07/01:00am - - - - - S 19 26 10 14 - - -
07/12:30am - - - - - S 22 26 12 14 - - -
07/12:00am - - - - - S 22 28 12 15 - - -
 
Date/Time
CDT
Temp
°C
App
Temp
°C
Dew
Point
Rel
Hum
%
Delta-T
°C
Wind Press
QNH
hPa
Press
MSL
hPa
Rain
since 9 am
mm
Dir
 
Spd
km/h
Gust
km/h
Spd
kts
Gust
kts
06/11:30pm - - - - - S 22 28 12 15 - - -
06/11:00pm - - - - - S 22 30 12 16 - - -
06/10:30pm - - - - - S 26 33 14 18 - - -
06/10:00pm - - - - - SSE 26 32 14 17 - - -
06/09:30pm - - - - - SSE 26 32 14 17 - - -
06/09:00pm - - - - - SSW 28 35 15 19 - - -
06/08:30pm - - - - - SSW 28 35 15 19 - - -
06/08:00pm - - - - - SSW 30 39 16 21 - - -
06/07:30pm - - - - - SSW 33 41 18 22 - - -
06/07:00pm - - - - - SW 33 41 18 22 - - -
06/06:30pm - - - - - SW 32 37 17 20 - - -
06/06:00pm - - - - - SW 32 39 17 21 - - -
06/05:30pm - - - - - SW 32 43 17 23 - - -
06/05:00pm - - - - - SW 33 41 18 22 - - -
06/04:30pm - - - - - SW 30 37 16 20 - - -
06/04:00pm - - - - - SW 30 39 16 21 - - -
06/03:30pm - - - - - SW 30 37 16 20 - - -
06/03:00pm - - - - - SW 32 39 17 21 - - -
06/02:30pm - - - - - SW 30 39 16 21 - - -
06/02:00pm - - - - - SW 32 39 17 21 - - -
06/01:30pm - - - - - SW 32 37 17 20 - - -
06/01:00pm - - - - - SW 28 33 15 18 - - -
06/12:30pm - - - - - SW 24 32 13 17 - - -
06/12:00pm - - - - - SW 24 30 13 16 - - -
06/11:30am - - - - - SW 24 26 13 14 - - -
06/11:00am - - - - - SW 17 22 9 12 - - -
06/10:30am - - - - - SW 13 17 7 9 - - -
06/10:00am - - - - - S 13 15 7 8 - - -
06/09:30am - - - - - SSW 15 17 8 9 - - -
06/09:00am - - - - - S 13 15 7 8 - - -
06/08:30am - - - - - SSW 13 17 7 9 - - -
06/08:00am - - - - - SSW 11 13 6 7 - - -
06/07:30am - - - - - S 13 15 7 8 - - -
06/07:00am - - - - - S 11 13 6 7 - - -
06/06:30am - - - - - S 11 13 6 7 - - -
06/06:00am - - - - - S 9 11 5 6 - - -
06/05:30am - - - - - SSE 6 6 3 3 - - -
06/05:00am - - - - - SSE 6 9 3 5 - - -
06/04:30am - - - - - SSE 11 13 6 7 - - -
06/04:00am - - - - - S 9 11 5 6 - - -
06/03:30am - - - - - S 13 15 7 8 - - -
06/03:00am - - - - - S 11 15 6 8 - - -
06/02:30am - - - - - S 15 19 8 10 - - -
06/02:00am - - - - - S 17 19 9 10 - - -
06/01:30am - - - - - S 20 26 11 14 - - -
06/01:00am - - - - - S 26 30 14 16 - - -
06/12:30am - - - - - SSE 28 33 15 18 - - -
06/12:00am - - - - - SSE 22 30 12 16 - - -
 
Date/Time
CDT
Temp
°C
App
Temp
°C
Dew
Point
Rel
Hum
%
Delta-T
°C
Wind Press
QNH
hPa
Press
MSL
hPa
Rain
since 9 am
mm
Dir
 
Spd
km/h
Gust
km/h
Spd
kts
Gust
kts
05/11:30pm - - - - - S 24 30 13 16 - - -
05/11:00pm - - - - - S 22 28 12 15 - - -
05/10:30pm - - - - - S 24 32 13 17 - - -
05/10:00pm - - - - - S 30 37 16 20 - - -
05/09:30pm - - - - - S 28 33 15 18 - - -
05/09:00pm - - - - - SSE 32 39 17 21 - - -
05/08:30pm - - - - - S 32 35 17 19 - - -
05/08:00pm - - - - - S 28 35 15 19 - - -
05/07:30pm - - - - - SSW 30 35 16 19 - - -
05/07:00pm - - - - - SSW 32 41 17 22 - - -
05/06:30pm - - - - - SSW 33 41 18 22 - - -
05/06:00pm - - - - - SSW 32 39 17 21 - - -
05/05:30pm - - - - - SSW 30 37 16 20 - - -
05/05:00pm - - - - - SSW 35 46 19 25 - - -

Other Formats:

Comma delimited format used in spreadsheet applications
http://www.bom.gov.au/fwo/IDS60801/IDS60801.94666.axf

JavaScript Object Notation format (JSON) in row-major order
http://www.bom.gov.au/fwo/IDS60801/IDS60801.94666.json